Time;durP1;ratioP1;P1;durP2;ratioP2;P2;SDS_P1;SDS_P2;PMS_P1;PMS_P2;Temp;Humidity;BMP_temperature;BMP_pressure;BME280_temperature;BME280_humidity;BME280_pressure;Samples;Min_cycle;Max_cycle;Signal;HPM_P1;HPM_P2
2021/09/19 00:02:00;;;;;;;5.20;4.40;;;;;;;;;;5032926;28;20837;-63
2021/09/19 00:04:27;;;;;;;8.40;4.90;;;;;;;;;;5033257;28;20474;-62
2021/09/19 00:06:54;;;;;;;6.73;4.90;;;;;;;;;;5033365;28;20448;-63
2021/09/19 00:09:22;;;;;;;7.10;5.60;;;;;;;;;;5033352;28;20506;-63
2021/09/19 00:11:49;;;;;;;5.20;4.67;;;;;;;;;;5033339;28;20474;-63
2021/09/19 00:14:18;;;;;;;8.07;5.40;;;;;;;;;;5033166;28;20485;-62
2021/09/19 00:16:45;;;;;;;5.87;5.27;;;;;;;;;;5033231;28;20860;-63
2021/09/19 00:19:13;;;;;;;6.57;5.20;;;;;;;;;;5033252;28;20449;-63
2021/09/19 00:21:41;;;;;;;7.57;5.33;;;;;;;;;;5033563;28;20523;-63
2021/09/19 00:24:08;;;;;;;6.27;5.73;;;;;;;;;;5035783;28;20437;-63
2021/09/19 00:26:36;;;;;;;6.23;5.63;;;;;;;;;;5037460;28;20865;-62
2021/09/19 00:29:03;;;;;;;5.90;5.30;;;;;;;;;;5037897;28;20449;-63
2021/09/19 00:31:32;;;;;;;9.23;5.30;;;;;;;;;;5038124;28;20461;-62
2021/09/19 00:33:59;;;;;;;8.30;5.90;;;;;;;;;;5038122;28;20538;-63
2021/09/19 00:36:27;;;;;;;6.80;5.17;;;;;;;;;;5037759;28;20493;-62
2021/09/19 00:38:54;;;;;;;6.10;5.50;;;;;;;;;;5037803;28;20449;-63
2021/09/19 00:41:21;;;;;;;10.00;5.80;;;;;;;;;;5037723;28;20590;-63
2021/09/19 00:43:48;;;;;;;8.63;6.80;;;;;;;;;;5037500;28;20498;-62
2021/09/19 00:46:16;;;;;;;9.10;6.33;;;;;;;;;;5037927;28;20452;-62
2021/09/19 00:48:44;;;;;;;5.97;5.40;;;;;;;;;;5037085;28;20858;-62
2021/09/19 00:51:12;;;;;;;7.60;6.10;;;;;;;;;;5037163;28;20471;-62
2021/09/19 00:53:40;;;;;;;7.90;5.90;;;;;;;;;;5037077;28;20473;-63
2021/09/19 00:56:08;;;;;;;6.23;5.60;;;;;;;;;;5037376;28;20513;-63
2021/09/19 00:58:35;;;;;;;6.80;5.53;;;;;;;;;;5037468;28;20523;-63
2021/09/19 01:01:03;;;;;;;6.80;5.70;;;;;;;;;;5037208;28;20542;-62
2021/09/19 01:03:30;;;;;;;8.10;5.60;;;;;;;;;;5037143;28;20531;-64
2021/09/19 01:05:59;;;;;;;6.03;5.43;;;;;;;;;;5036830;28;20449;-63
2021/09/19 01:08:27;;;;;;;6.37;5.77;;;;;;;;;;5036698;28;20457;-63
2021/09/19 01:10:54;;;;;;;8.93;6.40;;;;;;;;;;5036437;28;20476;-63
2021/09/19 01:13:22;;;;;;;11.00;6.57;;;;;;;;;;5036175;28;20558;-63
2021/09/19 01:15:50;;;;;;;6.70;5.50;;;;;;;;;;5036062;28;20467;-63
2021/09/19 01:18:18;;;;;;;8.30;6.40;;;;;;;;;;5036426;28;20873;-63
2021/09/19 01:20:46;;;;;;;8.70;6.07;;;;;;;;;;5035968;28;20475;-63
2021/09/19 01:23:15;;;;;;;9.53;5.87;;;;;;;;;;5036007;28;20470;-63
2021/09/19 01:25:44;;;;;;;6.80;6.10;;;;;;;;;;5036043;28;20490;-63
2021/09/19 01:28:12;;;;;;;8.03;5.67;;;;;;;;;;5035977;28;20498;-63
2021/09/19 01:30:40;;;;;;;6.97;5.87;;;;;;;;;;5036245;28;20493;-64
2021/09/19 01:33:07;;;;;;;6.47;5.43;;;;;;;;;;5035859;28;20452;-63
2021/09/19 01:35:34;;;;;;;9.00;6.60;;;;;;;;;;5035164;28;20443;-63
2021/09/19 01:38:02;;;;;;;11.93;6.10;;;;;;;;;;5035786;28;20460;-63
2021/09/19 01:40:29;;;;;;;7.00;5.57;;;;;;;;;;5043252;28;20464;-65
2021/09/19 01:42:58;;;;;;;8.03;5.60;;;;;;;;;;5060281;28;20441;-65
2021/09/19 01:45:26;;;;;;;7.67;5.70;;;;;;;;;;5059929;28;20455;-64
2021/09/19 01:47:53;;;;;;;6.73;5.53;;;;;;;;;;5057023;28;20455;-63
2021/09/19 01:50:21;;;;;;;10.47;6.60;;;;;;;;;;5041356;28;21148;-63
2021/09/19 01:52:48;;;;;;;9.90;5.90;;;;;;;;;;5036523;28;20482;-63
2021/09/19 01:55:16;;;;;;;5.30;4.80;;;;;;;;;;5035815;28;20483;-63
2021/09/19 01:57:43;;;;;;;7.07;5.90;;;;;;;;;;5035479;28;20460;-63
2021/09/19 02:00:13;;;;;;;7.77;5.27;;;;;;;;;;5036546;28;20517;-64
2021/09/19 02:02:40;;;;;;;5.77;5.17;;;;;;;;;;5036363;28;20459;-63
2021/09/19 02:05:09;;;;;;;8.27;5.30;;;;;;;;;;5035512;28;20444;-63
2021/09/19 02:07:37;;;;;;;6.67;5.57;;;;;;;;;;5035519;28;20532;-63
2021/09/19 02:10:05;;;;;;;6.87;5.00;;;;;;;;;;5036082;28;20465;-64
2021/09/19 02:12:33;;;;;;;7.60;4.90;;;;;;;;;;5035103;28;20795;-63
2021/09/19 02:15:00;;;;;;;6.63;4.73;;;;;;;;;;5035022;28;20481;-63
2021/09/19 02:17:29;;;;;;;5.87;5.27;;;;;;;;;;5035295;28;20443;-63
2021/09/19 02:19:56;;;;;;;5.13;3.97;;;;;;;;;;5035365;28;20499;-64
2021/09/19 02:22:23;;;;;;;6.83;4.27;;;;;;;;;;5034745;28;20469;-63
2021/09/19 02:24:50;;;;;;;4.90;4.17;;;;;;;;;;5035213;28;20495;-63
2021/09/19 02:27:20;;;;;;;6.10;4.57;;;;;;;;;;5035078;28;20499;-63
2021/09/19 02:29:48;;;;;;;8.47;5.40;;;;;;;;;;5034898;28;20450;-63
2021/09/19 02:32:15;;;;;;;6.07;5.00;;;;;;;;;;5034914;28;20574;-63
2021/09/19 02:34:44;;;;;;;7.27;4.80;;;;;;;;;;5034514;28;20911;-63
2021/09/19 02:37:11;;;;;;;5.63;4.47;;;;;;;;;;5034893;28;20513;-63
2021/09/19 02:39:38;;;;;;;6.67;4.33;;;;;;;;;;5034883;28;20503;-63
2021/09/19 02:42:06;;;;;;;5.97;3.83;;;;;;;;;;5034850;28;20477;-62
2021/09/19 02:44:33;;;;;;;7.20;4.47;;;;;;;;;;5034620;28;20446;-63
2021/09/19 02:47:01;;;;;;;8.00;4.30;;;;;;;;;;5034274;28;20806;-63
2021/09/19 02:49:28;;;;;;;6.53;4.77;;;;;;;;;;5034549;28;20447;-63
2021/09/19 02:51:56;;;;;;;5.40;4.33;;;;;;;;;;5034461;28;20466;-63
2021/09/19 02:54:24;;;;;;;7.07;5.27;;;;;;;;;;5034483;28;20535;-63
2021/09/19 02:56:51;;;;;;;4.80;4.27;;;;;;;;;;5034322;28;20490;-63
2021/09/19 02:59:19;;;;;;;10.00;4.77;;;;;;;;;;5034659;28;20451;-63
2021/09/19 03:01:46;;;;;;;8.30;4.10;;;;;;;;;;5034303;28;20536;-62
2021/09/19 03:04:14;;;;;;;10.13;4.77;;;;;;;;;;5034406;28;20453;-63
2021/09/19 03:06:41;;;;;;;5.50;4.50;;;;;;;;;;5034717;28;20496;-62
2021/09/19 03:09:10;;;;;;;7.60;4.03;;;;;;;;;;5034927;28;20540;-63
2021/09/19 03:11:37;;;;;;;6.20;4.20;;;;;;;;;;5034990;28;20522;-63
2021/09/19 03:14:04;;;;;;;5.70;5.00;;;;;;;;;;5034431;28;20549;-63
2021/09/19 03:16:31;;;;;;;8.20;4.93;;;;;;;;;;5034098;28;20495;-63
2021/09/19 03:18:59;;;;;;;8.30;5.23;;;;;;;;;;5034082;28;20853;-63
2021/09/19 03:21:26;;;;;;;8.00;4.80;;;;;;;;;;5033997;28;20467;-63
2021/09/19 03:23:53;;;;;;;5.67;4.40;;;;;;;;;;5036508;28;20444;-63
2021/09/19 03:26:22;;;;;;;7.20;5.07;;;;;;;;;;5046415;28;20942;-63
2021/09/19 03:28:49;;;;;;;5.77;4.47;;;;;;;;;;5051750;28;20437;-63
2021/09/19 03:31:16;;;;;;;5.60;4.20;;;;;;;;;;5048655;28;21052;-63
2021/09/19 03:33:44;;;;;;;6.10;4.70;;;;;;;;;;5034597;28;20499;-63
2021/09/19 03:36:11;;;;;;;11.30;4.33;;;;;;;;;;5033642;28;20455;-63
2021/09/19 03:38:38;;;;;;;5.93;4.47;;;;;;;;;;5035078;28;20500;-63
2021/09/19 03:41:05;;;;;;;10.50;4.87;;;;;;;;;;5035262;28;20895;-63
2021/09/19 03:43:34;;;;;;;6.20;4.70;;;;;;;;;;5033923;28;20501;-63
2021/09/19 03:46:01;;;;;;;7.50;4.43;;;;;;;;;;5033744;28;20445;-63
2021/09/19 03:48:28;;;;;;;6.67;4.70;;;;;;;;;;5034072;28;20566;-63
2021/09/19 03:50:56;;;;;;;7.93;4.70;;;;;;;;;;5033950;28;20465;-63
2021/09/19 03:53:23;;;;;;;5.80;4.40;;;;;;;;;;5033627;28;20513;-63
2021/09/19 03:55:50;;;;;;;7.00;5.10;;;;;;;;;;5033416;28;21003;-63
2021/09/19 03:58:17;;;;;;;7.17;4.47;;;;;;;;;;5032966;28;20499;-63
2021/09/19 04:00:46;;;;;;;6.57;4.40;;;;;;;;;;5033233;28;20531;-63
2021/09/19 04:03:13;;;;;;;6.83;4.83;;;;;;;;;;5033468;28;20442;-62
2021/09/19 04:08:35;;;;;;;6.70;4.60;;;;;;;;;;5132354;27;20596;-63
2021/09/19 04:11:02;;;;;;;7.27;4.70;;;;;;;;;;5131491;28;20462;-63
2021/09/19 04:13:30;;;;;;;5.33;4.83;;;;;;;;;;5131814;27;20501;-62
2021/09/19 04:15:57;;;;;;;13.50;5.60;;;;;;;;;;5132156;27;20932;-63
2021/09/19 04:18:24;;;;;;;7.30;4.63;;;;;;;;;;5132946;27;20448;-63
2021/09/19 04:20:51;;;;;;;7.23;5.07;;;;;;;;;;5132459;27;20518;-63
2021/09/19 04:23:19;;;;;;;9.23;5.40;;;;;;;;;;5131795;27;20502;-62
2021/09/19 04:25:47;;;;;;;10.03;5.27;;;;;;;;;;5131847;27;20524;-63
2021/09/19 04:28:14;;;;;;;5.73;4.63;;;;;;;;;;5131385;27;20476;-63
2021/09/19 04:30:42;;;;;;;5.43;4.93;;;;;;;;;;5131187;27;20528;-64
2021/09/19 04:33:09;;;;;;;5.83;4.67;;;;;;;;;;5131628;27;20503;-63
2021/09/19 04:35:36;;;;;;;7.63;4.90;;;;;;;;;;5131495;27;20511;-63
2021/09/19 04:38:04;;;;;;;6.90;5.00;;;;;;;;;;5131630;27;20521;-60
2021/09/19 04:40:31;;;;;;;5.93;4.80;;;;;;;;;;5131140;27;20490;-62
2021/09/19 04:42:59;;;;;;;18.80;7.23;;;;;;;;;;5131229;27;20444;-63
2021/09/19 04:45:27;;;;;;;7.60;4.90;;;;;;;;;;5131177;27;20446;-63
2021/09/19 04:47:54;;;;;;;7.30;5.00;;;;;;;;;;5131175;27;20522;-63
2021/09/19 04:50:21;;;;;;;8.20;5.07;;;;;;;;;;5131081;27;20525;-64
2021/09/19 04:52:51;;;;;;;6.67;4.87;;;;;;;;;;5131023;27;20449;-64
2021/09/19 04:55:18;;;;;;;5.83;5.17;;;;;;;;;;5131043;27;20462;-64
2021/09/19 04:57:45;;;;;;;14.67;4.73;;;;;;;;;;5130667;27;20448;-62
2021/09/19 05:00:14;;;;;;;7.13;4.90;;;;;;;;;;5130902;27;20444;-63
2021/09/19 05:02:42;;;;;;;6.77;4.90;;;;;;;;;;5155693;22;20577;-59
2021/09/19 05:05:10;;;;;;;8.70;5.50;;;;;;;;;;5110413;28;20454;-60
2021/09/19 05:07:37;;;;;;;9.03;5.20;;;;;;;;;;5110046;28;20895;-59
2021/09/19 05:10:04;;;;;;;8.93;5.00;;;;;;;;;;5109996;28;20441;-59
2021/09/19 05:12:32;;;;;;;5.97;4.93;;;;;;;;;;5109906;28;20530;-59
2021/09/19 05:14:59;;;;;;;5.40;4.90;;;;;;;;;;5109919;28;20516;-59
2021/09/19 05:17:27;;;;;;;9.27;5.23;;;;;;;;;;5109605;28;20444;-59
2021/09/19 05:19:55;;;;;;;7.20;5.70;;;;;;;;;;5096525;28;20869;-59
2021/09/19 05:22:22;;;;;;;6.13;4.90;;;;;;;;;;5096013;28;20498;-59
2021/09/19 05:24:49;;;;;;;8.60;6.17;;;;;;;;;;5096486;28;20494;-59
2021/09/19 05:27:16;;;;;;;10.37;5.20;;;;;;;;;;5096050;28;20474;-59
2021/09/19 05:29:44;;;;;;;9.10;4.60;;;;;;;;;;5095756;28;20448;-59
2021/09/19 05:32:11;;;;;;;5.93;4.50;;;;;;;;;;5095663;28;20469;-59
2021/09/19 05:34:39;;;;;;;7.17;5.40;;;;;;;;;;5096057;28;20487;-59
2021/09/19 05:37:07;;;;;;;6.07;4.73;;;;;;;;;;5095961;28;20501;-59
2021/09/19 05:39:34;;;;;;;7.00;5.40;;;;;;;;;;5096755;28;20450;-60
2021/09/19 05:42:01;;;;;;;5.83;4.73;;;;;;;;;;5096359;28;20469;-59
2021/09/19 05:44:29;;;;;;;6.30;5.10;;;;;;;;;;5095460;28;20536;-59
2021/09/19 05:46:56;;;;;;;9.87;4.80;;;;;;;;;;5095376;28;20481;-59
2021/09/19 05:49:23;;;;;;;6.73;5.10;;;;;;;;;;5095828;28;20866;-60
2021/09/19 05:51:52;;;;;;;7.00;5.10;;;;;;;;;;5095603;28;20491;-59
2021/09/19 05:54:19;;;;;;;5.83;4.80;;;;;;;;;;5095554;28;20448;-59
2021/09/19 05:56:46;;;;;;;8.10;5.40;;;;;;;;;;5095084;28;20943;-59
2021/09/19 05:59:13;;;;;;;5.67;4.83;;;;;;;;;;5095223;28;20451;-59
2021/09/19 06:01:41;;;;;;;5.50;5.00;;;;;;;;;;5095593;28;20446;-58
2021/09/19 06:04:08;;;;;;;10.47;4.80;;;;;;;;;;5095085;28;20494;-60
2021/09/19 06:06:35;;;;;;;7.13;5.40;;;;;;;;;;5095370;28;20437;-59
2021/09/19 06:09:04;;;;;;;7.13;5.53;;;;;;;;;;5095793;28;20533;-59
2021/09/19 06:11:31;;;;;;;7.87;4.87;;;;;;;;;;5095184;28;20446;-59
2021/09/19 06:13:58;;;;;;;7.30;5.17;;;;;;;;;;5094777;28;20961;-60
2021/09/19 06:16:26;;;;;;;6.80;5.30;;;;;;;;;;5095159;28;20448;-59
2021/09/19 06:18:53;;;;;;;5.93;4.80;;;;;;;;;;5095199;28;20442;-59
2021/09/19 06:21:20;;;;;;;7.07;5.43;;;;;;;;;;5094680;28;20453;-59
2021/09/19 06:23:47;;;;;;;11.63;5.83;;;;;;;;;;5094880;28;20454;-59
2021/09/19 06:26:16;;;;;;;5.50;4.60;;;;;;;;;;5094677;28;20862;-60
2021/09/19 06:28:43;;;;;;;6.37;4.77;;;;;;;;;;5094776;28;20527;-59
2021/09/19 06:31:10;;;;;;;7.83;5.17;;;;;;;;;;5093465;28;20980;-59
2021/09/19 06:33:38;;;;;;;7.03;5.17;;;;;;;;;;5094370;28;20530;-59
2021/09/19 06:36:06;;;;;;;7.97;5.00;;;;;;;;;;5094405;28;20458;-59
2021/09/19 06:38:33;;;;;;;9.13;5.87;;;;;;;;;;5094679;28;20864;-59
2021/09/19 06:41:00;;;;;;;6.20;5.13;;;;;;;;;;5094302;28;20931;-59
2021/09/19 06:43:29;;;;;;;7.87;4.60;;;;;;;;;;5094343;28;20459;-59
2021/09/19 06:45:56;;;;;;;8.63;5.23;;;;;;;;;;5094510;28;20440;-59
2021/09/19 06:48:23;;;;;;;8.87;4.93;;;;;;;;;;5094022;28;21073;-59
2021/09/19 06:50:50;;;;;;;8.20;5.70;;;;;;;;;;5094442;28;20507;-59
2021/09/19 06:53:18;;;;;;;5.60;4.90;;;;;;;;;;5094334;28;20485;-59
2021/09/19 06:55:45;;;;;;;7.50;4.73;;;;;;;;;;5094338;28;20498;-59
2021/09/19 06:58:12;;;;;;;8.13;5.20;;;;;;;;;;5094188;28;20446;-59
2021/09/19 07:00:41;;;;;;;7.50;4.83;;;;;;;;;;5094170;28;20498;-59
2021/09/19 07:03:08;;;;;;;8.40;5.03;;;;;;;;;;5093858;28;20478;-59
2021/09/19 07:05:35;;;;;;;5.40;4.87;;;;;;;;;;5093885;28;20988;-59
2021/09/19 07:08:02;;;;;;;6.63;4.10;;;;;;;;;;5093977;28;20529;-59
2021/09/19 07:10:30;;;;;;;6.83;5.10;;;;;;;;;;5093818;28;20996;-59
2021/09/19 07:12:57;;;;;;;7.57;5.10;;;;;;;;;;5093667;28;20977;-59
2021/09/19 07:15:24;;;;;;;9.27;5.73;;;;;;;;;;5093927;28;20506;-60
2021/09/19 07:17:53;;;;;;;5.00;4.37;;;;;;;;;;5093975;28;20501;-59
2021/09/19 07:20:20;;;;;;;6.40;5.40;;;;;;;;;;5093978;28;20439;-59
2021/09/19 07:22:47;;;;;;;7.90;4.93;;;;;;;;;;5093807;28;20461;-59
2021/09/19 07:25:15;;;;;;;5.20;3.67;;;;;;;;;;5093802;28;20457;-60
2021/09/19 07:27:42;;;;;;;7.47;4.87;;;;;;;;;;5093466;28;20527;-60
2021/09/19 07:30:10;;;;;;;6.63;4.80;;;;;;;;;;5093683;28;20855;-59
2021/09/19 07:32:38;;;;;;;5.80;4.80;;;;;;;;;;5093462;28;20471;-59
2021/09/19 07:35:07;;;;;;;7.83;4.80;;;;;;;;;;5093699;28;20488;-59
2021/09/19 07:37:35;;;;;;;6.00;5.07;;;;;;;;;;5093878;28;20438;-59
2021/09/19 07:40:02;;;;;;;5.20;4.60;;;;;;;;;;5093657;28;20446;-59
2021/09/19 07:42:30;;;;;;;5.93;4.20;;;;;;;;;;5092948;28;20467;-59
2021/09/19 07:44:57;;;;;;;6.20;4.10;;;;;;;;;;5093492;28;20441;-59
2021/09/19 07:47:27;;;;;;;6.50;4.97;;;;;;;;;;5093075;28;20446;-59
2021/09/19 07:49:54;;;;;;;6.13;4.37;;;;;;;;;;5093415;28;20500;-60
2021/09/19 07:52:23;;;;;;;5.83;4.77;;;;;;;;;;5093294;28;20878;-62
2021/09/19 07:54:54;;;;;;;6.37;4.70;;;;;;;;;;5093285;28;20507;-60
2021/09/19 07:57:21;;;;;;;6.03;4.67;;;;;;;;;;5093946;28;20463;-62
2021/09/19 07:59:48;;;;;;;7.13;4.10;;;;;;;;;;5093301;28;20447;-62
2021/09/19 08:02:16;;;;;;;4.80;4.30;;;;;;;;;;5092954;28;20488;-60
2021/09/19 08:04:43;;;;;;;5.33;4.83;;;;;;;;;;5093308;28;20871;-59
2021/09/19 08:07:10;;;;;;;5.30;4.80;;;;;;;;;;5093437;28;20458;-59
2021/09/19 08:09:39;;;;;;;5.00;4.50;;;;;;;;;;5092806;28;20992;-60
2021/09/19 08:12:07;;;;;;;4.60;4.10;;;;;;;;;;5093143;28;20874;-60
2021/09/19 08:14:34;;;;;;;7.73;4.70;;;;;;;;;;5092808;28;20501;-58
2021/09/19 08:17:01;;;;;;;6.30;4.43;;;;;;;;;;5093142;28;20492;-57
2021/09/19 08:19:29;;;;;;;6.13;4.23;;;;;;;;;;5093140;28;20438;-59
2021/09/19 08:21:57;;;;;;;7.23;4.37;;;;;;;;;;5092695;28;20452;-59
2021/09/19 08:24:24;;;;;;;4.13;3.60;;;;;;;;;;5092726;28;20823;-59
2021/09/19 08:26:52;;;;;;;4.43;3.80;;;;;;;;;;5092579;28;20509;-59
2021/09/19 08:29:20;;;;;;;5.47;4.10;;;;;;;;;;5092559;28;20986;-59
2021/09/19 08:31:47;;;;;;;5.63;4.10;;;;;;;;;;5092774;28;20498;-59
2021/09/19 08:34:14;;;;;;;7.47;4.17;;;;;;;;;;5092561;28;20451;-59
2021/09/19 08:36:41;;;;;;;5.70;4.70;;;;;;;;;;5092865;28;20439;-58
2021/09/19 08:39:09;;;;;;;5.30;3.93;;;;;;;;;;5092901;28;20493;-59
2021/09/19 08:41:37;;;;;;;5.63;4.00;;;;;;;;;;5092775;28;20448;-60
2021/09/19 08:44:06;;;;;;;6.37;4.50;;;;;;;;;;5092422;28;20443;-58
2021/09/19 08:46:33;;;;;;;6.23;4.40;;;;;;;;;;5092751;28;20446;-59
2021/09/19 08:49:00;;;;;;;5.63;4.27;;;;;;;;;;5092590;28;20522;-60
2021/09/19 08:51:28;;;;;;;6.17;4.07;;;;;;;;;;5092312;28;20499;-60
2021/09/19 08:53:55;;;;;;;5.70;4.07;;;;;;;;;;5094126;28;20470;-58
2021/09/19 08:56:24;;;;;;;3.67;3.37;;;;;;;;;;5096121;28;20503;-58
2021/09/19 08:58:52;;;;;;;4.93;3.43;;;;;;;;;;5096468;28;20478;-57
2021/09/19 09:01:20;;;;;;;6.40;4.07;;;;;;;;;;5096093;28;20446;-57
2021/09/19 09:03:48;;;;;;;5.53;3.80;;;;;;;;;;5095989;28;20470;-58
2021/09/19 09:06:18;;;;;;;3.40;3.10;;;;;;;;;;5096209;28;20453;-60
2021/09/19 09:08:47;;;;;;;6.03;3.70;;;;;;;;;;5095846;28;20478;-58
2021/09/19 09:11:15;;;;;;;6.10;4.20;;;;;;;;;;5095915;28;20507;-59
2021/09/19 09:13:44;;;;;;;5.23;4.40;;;;;;;;;;5096315;28;20470;-59
2021/09/19 09:16:12;;;;;;;5.87;5.00;;;;;;;;;;5096287;28;20446;-58
2021/09/19 09:18:42;;;;;;;5.17;3.87;;;;;;;;;;5096085;28;20488;-58
2021/09/19 09:21:10;;;;;;;7.30;3.77;;;;;;;;;;5096514;28;20853;-58
2021/09/19 09:23:39;;;;;;;5.50;3.70;;;;;;;;;;5095927;28;20472;-58
2021/09/19 09:26:16;;;;;;;4.10;3.23;;;;;;;;;;5095660;28;20451;-58
2021/09/19 09:28:45;;;;;;;4.33;3.93;;;;;;;;;;5095341;28;20470;-58
2021/09/19 09:31:13;;;;;;;3.53;3.20;;;;;;;;;;5095924;28;20767;-59
2021/09/19 09:33:54;;;;;;;3.47;2.90;;;;;;;;;;5095869;28;20499;-58
2021/09/19 09:36:30;;;;;;;3.57;3.27;;;;;;;;;;5095874;28;20778;-58
2021/09/19 09:38:57;;;;;;;6.60;4.00;;;;;;;;;;5097413;28;20420;-59
2021/09/19 09:41:38;;;;;;;4.37;3.43;;;;;;;;;;5096214;28;20854;-58
2021/09/19 09:44:24;;;;;;;4.40;3.40;;;;;;;;;;5096568;28;20478;-58
2021/09/19 09:46:51;;;;;;;4.20;3.30;;;;;;;;;;5096604;28;20963;-59
2021/09/19 09:49:23;;;;;;;5.03;3.47;;;;;;;;;;5096032;28;20476;-58
2021/09/19 09:51:50;;;;;;;3.70;3.40;;;;;;;;;;5096011;28;20882;-57
2021/09/19 09:54:18;;;;;;;4.77;4.10;;;;;;;;;;5095483;28;20496;-57
2021/09/19 09:56:47;;;;;;;6.23;3.63;;;;;;;;;;5095083;28;20939;-58
2021/09/19 09:59:16;;;;;;;3.80;3.37;;;;;;;;;;5095029;28;20487;-57
2021/09/19 10:01:44;;;;;;;3.20;2.83;;;;;;;;;;5094945;28;20428;-56
2021/09/19 10:04:11;;;;;;;4.30;3.87;;;;;;;;;;5095032;28;20501;-58
2021/09/19 10:06:40;;;;;;;3.77;3.10;;;;;;;;;;5095071;28;20508;-58
2021/09/19 10:09:08;;;;;;;6.90;3.30;;;;;;;;;;5094656;28;20475;-58
2021/09/19 10:11:38;;;;;;;3.00;2.67;;;;;;;;;;5095146;28;20787;-58
2021/09/19 10:14:05;;;;;;;3.00;2.70;;;;;;;;;;5095274;28;20428;-58
2021/09/19 10:16:33;;;;;;;2.93;2.27;;;;;;;;;;5094778;28;20494;-58
2021/09/19 10:19:01;;;;;;;3.20;2.60;;;;;;;;;;5094645;28;20441;-58
2021/09/19 10:21:31;;;;;;;2.50;2.30;;;;;;;;;;5094834;28;20901;-58
2021/09/19 10:24:00;;;;;;;2.60;2.20;;;;;;;;;;5094845;28;20502;-58
2021/09/19 10:26:27;;;;;;;2.80;2.40;;;;;;;;;;5094299;28;20605;-58
2021/09/19 10:28:54;;;;;;;3.90;2.13;;;;;;;;;;5094588;28;20544;-57
2021/09/19 10:31:28;;;;;;;3.13;2.37;;;;;;;;;;5094294;28;20447;-58
2021/09/19 10:33:56;;;;;;;3.83;2.17;;;;;;;;;;5094154;28;20552;-58
2021/09/19 10:36:29;;;;;;;3.43;1.93;;;;;;;;;;5094386;28;20497;-58
2021/09/19 10:42:14;;;;;;;3.87;2.90;;;;;;;;;;5090909;28;20561;-57
2021/09/19 10:44:58;;;;;;;4.77;2.70;;;;;;;;;;5090544;28;20455;-57
2021/09/19 10:47:29;;;;;;;3.27;2.97;;;;;;;;;;5090707;28;20428;-57
2021/09/19 10:50:11;;;;;;;4.00;3.30;;;;;;;;;;5090506;28;20445;-57
2021/09/19 10:52:41;;;;;;;2.97;2.70;;;;;;;;;;5090606;28;20471;-57
2021/09/19 10:55:19;;;;;;;4.90;2.77;;;;;;;;;;5090379;28;20489;-57
2021/09/19 10:57:54;;;;;;;3.90;2.77;;;;;;;;;;5090836;28;20469;-59
2021/09/19 11:00:21;;;;;;;2.73;2.47;;;;;;;;;;5090409;28;20471;-58
2021/09/19 11:03:15;;;;;;;5.73;3.37;;;;;;;;;;5111546;22;20486;-62
2021/09/19 11:05:44;;;;;;;4.80;3.50;;;;;;;;;;5026857;28;20446;-63
2021/09/19 11:08:39;;;;;;;4.90;2.87;;;;;;;;;;5051353;28;20444;-63
2021/09/19 11:11:10;;;;;;;4.80;3.20;;;;;;;;;;5050633;28;20468;-62
2021/09/19 11:13:42;;;;;;;3.00;2.70;;;;;;;;;;5051226;28;20877;-63
2021/09/19 11:16:27;;;;;;;2.83;2.20;;;;;;;;;;5052329;28;20432;-61
2021/09/19 11:18:55;;;;;;;3.53;2.60;;;;;;;;;;5051133;28;20829;-64
2021/09/19 11:21:41;;;;;;;3.60;3.30;;;;;;;;;;5050921;28;20478;-63
2021/09/19 11:24:12;;;;;;;5.37;3.20;;;;;;;;;;5050711;28;20547;-61
2021/09/19 11:26:40;;;;;;;6.20;3.20;;;;;;;;;;5051244;28;20435;-63
2021/09/19 11:29:10;;;;;;;3.07;2.53;;;;;;;;;;5051143;28;20453;-62
2021/09/19 11:31:38;;;;;;;6.73;3.57;;;;;;;;;;5050165;28;20829;-62
2021/09/19 11:34:06;;;;;;;6.80;3.80;;;;;;;;;;5049916;28;20466;-62
2021/09/19 11:36:35;;;;;;;4.43;3.43;;;;;;;;;;5050110;28;20445;-63
2021/09/19 11:39:02;;;;;;;3.70;2.97;;;;;;;;;;5049310;28;20452;-61
2021/09/19 11:41:29;;;;;;;4.80;3.27;;;;;;;;;;5049302;28;20481;-65
2021/09/19 11:43:57;;;;;;;4.20;3.33;;;;;;;;;;5049642;28;20535;-66
2021/09/19 11:46:27;;;;;;;4.43;3.30;;;;;;;;;;5049883;28;20499;-62
2021/09/19 11:48:54;;;;;;;3.43;2.67;;;;;;;;;;5049517;28;20507;-64
2021/09/19 11:51:22;;;;;;;3.30;3.00;;;;;;;;;;5046038;28;20500;-63
2021/09/19 11:53:50;;;;;;;6.03;3.00;;;;;;;;;;5035624;28;20471;-64
2021/09/19 11:56:18;;;;;;;4.40;2.90;;;;;;;;;;5035883;28;20937;-63
2021/09/19 11:58:45;;;;;;;4.40;3.30;;;;;;;;;;5035951;28;20450;-62
2021/09/19 12:01:13;;;;;;;4.03;3.63;;;;;;;;;;5035530;28;20478;-62
2021/09/19 12:03:42;;;;;;;3.57;2.70;;;;;;;;;;5035584;28;20532;-62
2021/09/19 12:06:10;;;;;;;4.13;2.67;;;;;;;;;;5035834;28;20447;-63
2021/09/19 12:08:37;;;;;;;3.90;2.83;;;;;;;;;;5035726;28;20451;-63
2021/09/19 12:11:06;;;;;;;3.50;3.20;;;;;;;;;;5035899;28;20447;-63
2021/09/19 12:13:34;;;;;;;3.20;2.20;;;;;;;;;;5035788;28;20517;-62
2021/09/19 12:16:03;;;;;;;4.83;2.43;;;;;;;;;;5035821;28;20439;-63
2021/09/19 12:18:31;;;;;;;4.80;3.10;;;;;;;;;;5035774;28;20439;-62
2021/09/19 12:21:01;;;;;;;3.70;2.80;;;;;;;;;;5035221;28;20565;-62
2021/09/19 12:23:29;;;;;;;4.07;3.10;;;;;;;;;;5035518;28;20470;-64
2021/09/19 12:25:56;;;;;;;2.70;2.20;;;;;;;;;;5035687;28;20454;-65
2021/09/19 12:28:30;;;;;;;2.40;2.00;;;;;;;;;;5035293;28;20512;-64
2021/09/19 12:30:57;;;;;;;2.67;2.20;;;;;;;;;;5035031;28;20450;-62
2021/09/19 12:33:24;;;;;;;2.50;2.20;;;;;;;;;;5034798;28;20469;-64
2021/09/19 12:35:52;;;;;;;3.97;2.37;;;;;;;;;;5034980;28;20489;-62
2021/09/19 12:38:20;;;;;;;3.40;2.50;;;;;;;;;;5035030;28;20456;-62
2021/09/19 12:40:48;;;;;;;4.50;2.77;;;;;;;;;;5034691;28;20555;-61
2021/09/19 12:43:16;;;;;;;3.30;2.37;;;;;;;;;;5035161;28;20526;-62
2021/09/19 12:45:49;;;;;;;5.10;2.80;;;;;;;;;;5036154;28;20512;-67
2021/09/19 12:48:22;;;;;;;3.57;3.10;;;;;;;;;;5046457;28;20470;-64
2021/09/19 12:50:54;;;;;;;3.80;2.90;;;;;;;;;;5044339;28;20558;-63
2021/09/19 12:53:25;;;;;;;2.97;2.40;;;;;;;;;;5043753;28;20498;-63
2021/09/19 12:55:52;;;;;;;3.87;3.10;;;;;;;;;;5045993;28;20435;-63
2021/09/19 12:58:19;;;;;;;4.13;2.97;;;;;;;;;;5038274;28;20989;-61
2021/09/19 13:00:47;;;;;;;5.57;4.40;;;;;;;;;;5035159;28;20537;-61
2021/09/19 13:03:16;;;;;;;4.17;2.90;;;;;;;;;;5033888;28;21059;-62
2021/09/19 13:05:43;;;;;;;5.40;4.00;;;;;;;;;;5034789;28;20454;-62
2021/09/19 13:08:11;;;;;;;3.67;3.20;;;;;;;;;;5034652;28;20807;-61
2021/09/19 13:10:39;;;;;;;6.30;2.70;;;;;;;;;;5034348;28;20497;-62
2021/09/19 13:13:07;;;;;;;4.17;2.60;;;;;;;;;;5034587;28;20524;-61
2021/09/19 13:15:34;;;;;;;4.80;2.67;;;;;;;;;;5034656;28;21014;-61
2021/09/19 13:18:01;;;;;;;3.37;2.90;;;;;;;;;;5035507;28;20506;-62
2021/09/19 13:20:29;;;;;;;5.00;3.03;;;;;;;;;;5034415;28;20500;-62
2021/09/19 13:22:56;;;;;;;5.93;3.37;;;;;;;;;;5034262;28;20524;-61
2021/09/19 13:25:24;;;;;;;4.83;3.37;;;;;;;;;;5034358;28;20498;-62
2021/09/19 13:27:53;;;;;;;3.40;2.40;;;;;;;;;;5034330;28;20939;-62
2021/09/19 13:30:21;;;;;;;4.23;2.90;;;;;;;;;;5034599;28;20637;-61
2021/09/19 13:32:48;;;;;;;5.40;2.43;;;;;;;;;;5034258;28;20467;-60
2021/09/19 13:35:16;;;;;;;3.63;2.97;;;;;;;;;;5033874;28;20455;-61
2021/09/19 13:37:43;;;;;;;5.07;3.10;;;;;;;;;;5034207;28;20456;-61
2021/09/19 13:40:12;;;;;;;3.77;2.70;;;;;;;;;;5034083;28;20789;-62
2021/09/19 13:42:39;;;;;;;3.47;2.57;;;;;;;;;;5034225;28;20544;-61
2021/09/19 13:45:09;;;;;;;3.30;2.97;;;;;;;;;;5034125;28;20505;-59
2021/09/19 13:47:36;;;;;;;5.63;2.90;;;;;;;;;;5033618;28;20521;-61
2021/09/19 13:50:03;;;;;;;3.43;2.50;;;;;;;;;;5034016;28;20448;-61
2021/09/19 13:52:30;;;;;;;5.57;3.10;;;;;;;;;;5034084;28;21067;-60
2021/09/19 13:54:58;;;;;;;4.37;3.57;;;;;;;;;;5033661;28;20497;-61
2021/09/19 13:57:25;;;;;;;4.73;3.33;;;;;;;;;;5035127;28;20446;-61
2021/09/19 13:59:52;;;;;;;3.10;2.77;;;;;;;;;;5034648;28;20509;-62
2021/09/19 14:02:21;;;;;;;3.77;2.50;;;;;;;;;;5033414;28;20483;-62
2021/09/19 14:04:48;;;;;;;5.77;3.30;;;;;;;;;;5033431;28;20432;-61
2021/09/19 14:07:15;;;;;;;3.80;2.77;;;;;;;;;;5033574;28;20451;-61
2021/09/19 14:09:43;;;;;;;4.10;3.33;;;;;;;;;;5033511;28;20521;-61
2021/09/19 14:12:10;;;;;;;3.90;2.33;;;;;;;;;;5033084;28;20990;-62
2021/09/19 14:14:37;;;;;;;3.50;3.20;;;;;;;;;;5033124;28;20524;-61
2021/09/19 14:17:05;;;;;;;3.57;3.00;;;;;;;;;;5033335;28;20479;-62
2021/09/19 14:19:33;;;;;;;4.03;3.27;;;;;;;;;;5032996;28;20447;-62
2021/09/19 14:22:01;;;;;;;3.37;3.03;;;;;;;;;;5033070;28;20514;-62
2021/09/19 14:24:28;;;;;;;5.63;3.10;;;;;;;;;;5033147;28;20513;-62
2021/09/19 14:26:55;;;;;;;4.87;3.10;;;;;;;;;;5033277;28;20451;-61
2021/09/19 14:29:22;;;;;;;6.17;3.50;;;;;;;;;;5033142;28;20458;-61
2021/09/19 14:31:50;;;;;;;4.53;2.93;;;;;;;;;;5032896;28;20443;-61
2021/09/19 14:34:17;;;;;;;4.10;3.13;;;;;;;;;;5032667;28;20475;-62
2021/09/19 14:36:46;;;;;;;3.60;2.83;;;;;;;;;;5033335;28;20445;-62
2021/09/19 14:39:14;;;;;;;5.37;3.50;;;;;;;;;;5033174;28;20456;-61
2021/09/19 14:41:41;;;;;;;5.33;3.37;;;;;;;;;;5032771;28;20483;-61
2021/09/19 14:44:08;;;;;;;5.60;3.60;;;;;;;;;;5032827;28;20528;-61
2021/09/19 14:46:36;;;;;;;4.70;2.90;;;;;;;;;;5032763;28;20999;-62
2021/09/19 14:49:03;;;;;;;6.40;3.27;;;;;;;;;;5033093;28;20525;-61
2021/09/19 14:51:30;;;;;;;6.43;4.80;;;;;;;;;;5033123;28;20440;-63
2021/09/19 14:53:59;;;;;;;5.63;3.17;;;;;;;;;;5032679;28;20519;-62
2021/09/19 14:56:26;;;;;;;5.30;3.10;;;;;;;;;;5032535;28;20946;-61